sensor_id;sensor_type;location;lat;lon;timestamp;P1;durP1;ratioP1;P2;durP2;ratioP2
61471;SDS011;47337;54.068;12.114;2023-11-21T00:02:12;9.57;;;5.93;;
61471;SDS011;47337;54.068;12.114;2023-11-21T00:04:37;9.52;;;5.72;;
61471;SDS011;47337;54.068;12.114;2023-11-21T00:07:03;8.82;;;5.55;;
61471;SDS011;47337;54.068;12.114;2023-11-21T00:09:28;9.05;;;5.35;;
61471;SDS011;47337;54.068;12.114;2023-11-21T00:11:54;9.65;;;6.07;;
61471;SDS011;47337;54.068;12.114;2023-11-21T00:14:22;8.02;;;5.38;;
61471;SDS011;47337;54.068;12.114;2023-11-21T00:16:47;10.23;;;5.60;;
61471;SDS011;47337;54.068;12.114;2023-11-21T00:19:12;12.15;;;6.10;;
61471;SDS011;47337;54.068;12.114;2023-11-21T00:21:38;9.52;;;5.65;;
61471;SDS011;47337;54.068;12.114;2023-11-21T00:24:03;10.95;;;6.20;;
61471;SDS011;47337;54.068;12.114;2023-11-21T00:26:28;10.65;;;6.63;;
61471;SDS011;47337;54.068;12.114;2023-11-21T00:28:56;10.65;;;6.22;;
61471;SDS011;47337;54.068;12.114;2023-11-21T00:31:21;11.25;;;6.53;;
61471;SDS011;47337;54.068;12.114;2023-11-21T00:33:46;10.15;;;6.18;;
61471;SDS011;47337;54.068;12.114;2023-11-21T00:36:12;10.35;;;6.00;;
61471;SDS011;47337;54.068;12.114;2023-11-21T00:38:37;10.82;;;6.60;;
61471;SDS011;47337;54.068;12.114;2023-11-21T00:41:05;11.48;;;7.32;;
61471;SDS011;47337;54.068;12.114;2023-11-21T00:43:30;8.80;;;5.60;;
61471;SDS011;47337;54.068;12.114;2023-11-21T00:45:58;9.90;;;5.88;;
61471;SDS011;47337;54.068;12.114;2023-11-21T00:48:23;11.50;;;6.45;;
61471;SDS011;47337;54.068;12.114;2023-11-21T00:50:48;10.00;;;6.20;;
61471;SDS011;47337;54.068;12.114;2023-11-21T00:53:15;11.63;;;7.10;;
61471;SDS011;47337;54.068;12.114;2023-11-21T00:55:40;12.55;;;7.18;;
61471;SDS011;47337;54.068;12.114;2023-11-21T00:58:06;11.90;;;7.07;;
61471;SDS011;47337;54.068;12.114;2023-11-21T01:00:32;14.82;;;7.05;;
61471;SDS011;47337;54.068;12.114;2023-11-21T01:03:00;11.77;;;7.00;;
61471;SDS011;47337;54.068;12.114;2023-11-21T01:05:25;11.48;;;6.65;;
61471;SDS011;47337;54.068;12.114;2023-11-21T01:07:50;10.18;;;6.20;;
61471;SDS011;47337;54.068;12.114;2023-11-21T01:10:15;10.75;;;6.35;;
61471;SDS011;47337;54.068;12.114;2023-11-21T01:12:42;10.68;;;6.25;;
61471;SDS011;47337;54.068;12.114;2023-11-21T01:15:07;11.70;;;6.80;;
61471;SDS011;47337;54.068;12.114;2023-11-21T01:17:33;10.45;;;6.15;;
61471;SDS011;47337;54.068;12.114;2023-11-21T01:19:59;10.27;;;5.72;;
61471;SDS011;47337;54.068;12.114;2023-11-21T01:22:25;9.57;;;5.82;;
61471;SDS011;47337;54.068;12.114;2023-11-21T01:24:51;10.65;;;6.28;;
61471;SDS011;47337;54.068;12.114;2023-11-21T01:27:16;11.38;;;6.18;;
61471;SDS011;47337;54.068;12.114;2023-11-21T01:29:42;11.75;;;6.45;;
61471;SDS011;47337;54.068;12.114;2023-11-21T01:32:09;10.38;;;5.70;;
61471;SDS011;47337;54.068;12.114;2023-11-21T01:34:35;9.75;;;5.78;;
61471;SDS011;47337;54.068;12.114;2023-11-21T01:37:00;9.90;;;6.18;;
61471;SDS011;47337;54.068;12.114;2023-11-21T01:39:26;9.27;;;5.85;;
61471;SDS011;47337;54.068;12.114;2023-11-21T01:41:51;10.57;;;6.00;;
61471;SDS011;47337;54.068;12.114;2023-11-21T01:44:17;9.70;;;6.05;;
61471;SDS011;47337;54.068;12.114;2023-11-21T01:46:44;9.02;;;6.03;;
61471;SDS011;47337;54.068;12.114;2023-11-21T01:49:12;7.80;;;5.10;;
61471;SDS011;47337;54.068;12.114;2023-11-21T01:51:38;9.02;;;4.88;;
61471;SDS011;47337;54.068;12.114;2023-11-21T01:54:06;8.10;;;5.40;;
61471;SDS011;47337;54.068;12.114;2023-11-21T01:56:32;7.47;;;4.63;;
61471;SDS011;47337;54.068;12.114;2023-11-21T01:58:57;9.32;;;5.28;;
61471;SDS011;47337;54.068;12.114;2023-11-21T02:01:22;7.68;;;5.20;;
61471;SDS011;47337;54.068;12.114;2023-11-21T02:03:48;7.95;;;5.18;;
61471;SDS011;47337;54.068;12.114;2023-11-21T02:06:13;10.85;;;5.80;;
61471;SDS011;47337;54.068;12.114;2023-11-21T02:08:38;12.45;;;5.18;;
61471;SDS011;47337;54.068;12.114;2023-11-21T02:11:04;9.43;;;5.05;;
61471;SDS011;47337;54.068;12.114;2023-11-21T02:13:30;8.95;;;5.15;;
61471;SDS011;47337;54.068;12.114;2023-11-21T02:15:56;10.25;;;5.63;;
61471;SDS011;47337;54.068;12.114;2023-11-21T02:18:23;9.18;;;5.00;;
61471;SDS011;47337;54.068;12.114;2023-11-21T02:20:49;9.95;;;5.20;;
61471;SDS011;47337;54.068;12.114;2023-11-21T02:23:14;9.75;;;5.18;;
61471;SDS011;47337;54.068;12.114;2023-11-21T02:25:39;8.88;;;4.95;;
61471;SDS011;47337;54.068;12.114;2023-11-21T02:28:05;9.38;;;5.07;;
61471;SDS011;47337;54.068;12.114;2023-11-21T02:30:31;5.90;;;3.88;;
61471;SDS011;47337;54.068;12.114;2023-11-21T02:33:00;7.43;;;4.72;;
61471;SDS011;47337;54.068;12.114;2023-11-21T02:35:26;7.40;;;4.35;;
61471;SDS011;47337;54.068;12.114;2023-11-21T02:37:51;7.03;;;4.10;;
61471;SDS011;47337;54.068;12.114;2023-11-21T02:40:17;7.85;;;4.30;;
61471;SDS011;47337;54.068;12.114;2023-11-21T02:42:51;5.43;;;4.20;;
61471;SDS011;47337;54.068;12.114;2023-11-21T02:45:17;6.72;;;3.60;;
61471;SDS011;47337;54.068;12.114;2023-11-21T02:47:44;6.07;;;3.58;;
61471;SDS011;47337;54.068;12.114;2023-11-21T02:50:09;7.47;;;3.47;;
61471;SDS011;47337;54.068;12.114;2023-11-21T02:52:34;9.00;;;5.55;;
61471;SDS011;47337;54.068;12.114;2023-11-21T02:55:00;6.28;;;4.13;;
61471;SDS011;47337;54.068;12.114;2023-11-21T02:57:26;6.93;;;3.80;;
61471;SDS011;47337;54.068;12.114;2023-11-21T02:59:51;5.60;;;3.75;;
61471;SDS011;47337;54.068;12.114;2023-11-21T03:02:16;6.38;;;4.13;;
61471;SDS011;47337;54.068;12.114;2023-11-21T03:04:42;6.15;;;4.13;;
61471;SDS011;47337;54.068;12.114;2023-11-21T03:07:08;6.78;;;4.13;;
61471;SDS011;47337;54.068;12.114;2023-11-21T03:09:33;5.68;;;4.10;;
61471;SDS011;47337;54.068;12.114;2023-11-21T03:11:58;7.07;;;4.45;;
61471;SDS011;47337;54.068;12.114;2023-11-21T03:14:23;6.57;;;3.97;;
61471;SDS011;47337;54.068;12.114;2023-11-21T03:16:51;5.90;;;4.25;;
61471;SDS011;47337;54.068;12.114;2023-11-21T03:19:16;7.03;;;4.03;;
61471;SDS011;47337;54.068;12.114;2023-11-21T03:21:42;9.55;;;4.18;;
61471;SDS011;47337;54.068;12.114;2023-11-21T03:24:07;5.35;;;3.90;;
61471;SDS011;47337;54.068;12.114;2023-11-21T03:26:33;7.60;;;3.90;;
61471;SDS011;47337;54.068;12.114;2023-11-21T03:28:58;5.80;;;4.10;;
61471;SDS011;47337;54.068;12.114;2023-11-21T03:31:23;6.13;;;3.90;;
61471;SDS011;47337;54.068;12.114;2023-11-21T03:33:48;6.43;;;4.10;;
61471;SDS011;47337;54.068;12.114;2023-11-21T03:36:14;11.10;;;3.92;;
61471;SDS011;47337;54.068;12.114;2023-11-21T03:38:43;5.00;;;3.67;;
61471;SDS011;47337;54.068;12.114;2023-11-21T03:41:08;9.35;;;4.53;;
61471;SDS011;47337;54.068;12.114;2023-11-21T03:43:36;5.68;;;3.65;;
61471;SDS011;47337;54.068;12.114;2023-11-21T03:46:02;4.85;;;3.53;;
61471;SDS011;47337;54.068;12.114;2023-11-21T03:48:27;7.72;;;4.10;;
61471;SDS011;47337;54.068;12.114;2023-11-21T03:50:52;7.60;;;4.15;;
61471;SDS011;47337;54.068;12.114;2023-11-21T03:53:20;6.47;;;4.15;;
61471;SDS011;47337;54.068;12.114;2023-11-21T03:55:45;6.95;;;3.92;;
61471;SDS011;47337;54.068;12.114;2023-11-21T03:58:10;8.45;;;3.35;;
61471;SDS011;47337;54.068;12.114;2023-11-21T04:00:36;4.68;;;3.50;;
61471;SDS011;47337;54.068;12.114;2023-11-21T04:03:01;6.78;;;3.70;;
61471;SDS011;47337;54.068;12.114;2023-11-21T04:05:27;5.75;;;3.38;;
61471;SDS011;47337;54.068;12.114;2023-11-21T04:07:52;5.88;;;4.30;;
61471;SDS011;47337;54.068;12.114;2023-11-21T04:10:17;6.00;;;3.53;;
61471;SDS011;47337;54.068;12.114;2023-11-21T04:12:45;5.45;;;3.53;;
61471;SDS011;47337;54.068;12.114;2023-11-21T04:15:13;6.13;;;3.50;;
61471;SDS011;47337;54.068;12.114;2023-11-21T04:17:39;6.25;;;3.83;;
61471;SDS011;47337;54.068;12.114;2023-11-21T04:20:05;6.18;;;3.35;;
61471;SDS011;47337;54.068;12.114;2023-11-21T04:22:33;5.22;;;3.10;;
61471;SDS011;47337;54.068;12.114;2023-11-21T04:24:59;5.07;;;3.25;;
61471;SDS011;47337;54.068;12.114;2023-11-21T04:27:24;5.13;;;3.10;;
61471;SDS011;47337;54.068;12.114;2023-11-21T04:29:49;5.30;;;3.50;;
61471;SDS011;47337;54.068;12.114;2023-11-21T04:32:15;4.25;;;3.22;;
61471;SDS011;47337;54.068;12.114;2023-11-21T04:34:41;7.70;;;3.75;;
61471;SDS011;47337;54.068;12.114;2023-11-21T04:37:06;5.82;;;3.88;;
61471;SDS011;47337;54.068;12.114;2023-11-21T04:39:31;5.93;;;3.40;;
61471;SDS011;47337;54.068;12.114;2023-11-21T04:41:59;5.05;;;2.88;;
61471;SDS011;47337;54.068;12.114;2023-11-21T04:44:24;5.45;;;2.97;;
61471;SDS011;47337;54.068;12.114;2023-11-21T04:46:49;4.72;;;3.30;;
61471;SDS011;47337;54.068;12.114;2023-11-21T04:49:15;5.85;;;3.58;;
61471;SDS011;47337;54.068;12.114;2023-11-21T04:51:40;6.32;;;3.70;;
61471;SDS011;47337;54.068;12.114;2023-11-21T04:54:05;4.30;;;3.05;;
61471;SDS011;47337;54.068;12.114;2023-11-21T04:56:30;5.05;;;3.28;;
61471;SDS011;47337;54.068;12.114;2023-11-21T04:58:56;5.40;;;3.10;;
61471;SDS011;47337;54.068;12.114;2023-11-21T05:01:21;8.98;;;3.47;;
61471;SDS011;47337;54.068;12.114;2023-11-21T05:03:46;6.13;;;2.90;;
61471;SDS011;47337;54.068;12.114;2023-11-21T05:06:12;5.75;;;3.20;;
61471;SDS011;47337;54.068;12.114;2023-11-21T05:08:37;6.70;;;3.53;;
61471;SDS011;47337;54.068;12.114;2023-11-21T05:11:03;3.83;;;3.08;;
61471;SDS011;47337;54.068;12.114;2023-11-21T05:13:28;6.68;;;3.08;;
61471;SDS011;47337;54.068;12.114;2023-11-21T05:15:56;6.55;;;3.67;;
61471;SDS011;47337;54.068;12.114;2023-11-21T05:18:22;6.25;;;3.55;;
61471;SDS011;47337;54.068;12.114;2023-11-21T05:20:47;5.60;;;3.00;;
61471;SDS011;47337;54.068;12.114;2023-11-21T05:23:15;9.05;;;4.63;;
61471;SDS011;47337;54.068;12.114;2023-11-21T05:25:40;5.78;;;3.60;;
61471;SDS011;47337;54.068;12.114;2023-11-21T05:28:06;5.45;;;3.58;;
61471;SDS011;47337;54.068;12.114;2023-11-21T05:30:31;6.40;;;3.63;;
61471;SDS011;47337;54.068;12.114;2023-11-21T05:32:57;7.78;;;3.40;;
61471;SDS011;47337;54.068;12.114;2023-11-21T05:35:22;5.15;;;3.85;;
61471;SDS011;47337;54.068;12.114;2023-11-21T05:37:47;5.63;;;3.92;;
61471;SDS011;47337;54.068;12.114;2023-11-21T05:40:13;7.05;;;3.88;;
61471;SDS011;47337;54.068;12.114;2023-11-21T05:42:38;6.30;;;4.03;;
61471;SDS011;47337;54.068;12.114;2023-11-21T05:45:04;9.15;;;4.45;;
61471;SDS011;47337;54.068;12.114;2023-11-21T05:47:40;7.53;;;4.45;;
61471;SDS011;47337;54.068;12.114;2023-11-21T05:50:06;7.53;;;4.47;;
61471;SDS011;47337;54.068;12.114;2023-11-21T05:52:35;5.93;;;3.85;;
61471;SDS011;47337;54.068;12.114;2023-11-21T05:55:00;6.43;;;4.45;;
61471;SDS011;47337;54.068;12.114;2023-11-21T05:57:26;5.32;;;4.03;;
61471;SDS011;47337;54.068;12.114;2023-11-21T05:59:51;5.75;;;3.47;;
61471;SDS011;47337;54.068;12.114;2023-11-21T06:02:18;7.60;;;4.32;;
61471;SDS011;47337;54.068;12.114;2023-11-21T06:04:44;6.88;;;4.18;;
61471;SDS011;47337;54.068;12.114;2023-11-21T06:07:09;6.97;;;4.50;;
61471;SDS011;47337;54.068;12.114;2023-11-21T06:09:36;5.20;;;4.22;;
61471;SDS011;47337;54.068;12.114;2023-11-21T06:12:02;6.53;;;4.10;;
61471;SDS011;47337;54.068;12.114;2023-11-21T06:14:29;6.70;;;4.20;;
61471;SDS011;47337;54.068;12.114;2023-11-21T06:16:58;7.18;;;4.57;;
61471;SDS011;47337;54.068;12.114;2023-11-21T06:19:23;6.03;;;4.32;;
61471;SDS011;47337;54.068;12.114;2023-11-21T06:21:48;6.88;;;4.60;;
61471;SDS011;47337;54.068;12.114;2023-11-21T06:24:14;10.80;;;5.22;;
61471;SDS011;47337;54.068;12.114;2023-11-21T06:26:40;6.82;;;3.97;;
61471;SDS011;47337;54.068;12.114;2023-11-21T06:29:09;7.97;;;4.53;;
61471;SDS011;47337;54.068;12.114;2023-11-21T06:31:36;10.20;;;4.68;;
61471;SDS011;47337;54.068;12.114;2023-11-21T06:34:02;5.88;;;4.38;;
61471;SDS011;47337;54.068;12.114;2023-11-21T06:36:28;9.45;;;4.45;;
61471;SDS011;47337;54.068;12.114;2023-11-21T06:38:53;5.90;;;4.35;;
61471;SDS011;47337;54.068;12.114;2023-11-21T06:41:18;7.82;;;4.70;;
61471;SDS011;47337;54.068;12.114;2023-11-21T06:43:44;10.18;;;4.88;;
61471;SDS011;47337;54.068;12.114;2023-11-21T06:46:11;8.50;;;4.88;;
61471;SDS011;47337;54.068;12.114;2023-11-21T06:48:36;8.35;;;4.72;;
61471;SDS011;47337;54.068;12.114;2023-11-21T06:51:03;7.82;;;4.70;;
61471;SDS011;47337;54.068;12.114;2023-11-21T06:53:28;9.48;;;5.18;;
61471;SDS011;47337;54.068;12.114;2023-11-21T06:55:54;8.00;;;5.20;;
61471;SDS011;47337;54.068;12.114;2023-11-21T06:58:19;7.80;;;4.90;;
61471;SDS011;47337;54.068;12.114;2023-11-21T07:00:44;8.55;;;4.80;;
61471;SDS011;47337;54.068;12.114;2023-11-21T07:03:11;6.97;;;4.63;;
61471;SDS011;47337;54.068;12.114;2023-11-21T07:05:39;7.25;;;4.53;;
61471;SDS011;47337;54.068;12.114;2023-11-21T07:08:04;10.35;;;4.80;;
61471;SDS011;47337;54.068;12.114;2023-11-21T07:10:30;10.25;;;4.88;;
61471;SDS011;47337;54.068;12.114;2023-11-21T07:12:55;10.13;;;4.47;;
61471;SDS011;47337;54.068;12.114;2023-11-21T07:15:22;9.80;;;4.72;;
61471;SDS011;47337;54.068;12.114;2023-11-21T07:17:47;5.82;;;4.38;;
61471;SDS011;47337;54.068;12.114;2023-11-21T07:20:13;9.05;;;4.78;;
61471;SDS011;47337;54.068;12.114;2023-11-21T07:22:38;6.40;;;4.88;;
61471;SDS011;47337;54.068;12.114;2023-11-21T07:25:04;6.63;;;4.38;;
61471;SDS011;47337;54.068;12.114;2023-11-21T07:27:30;7.70;;;4.78;;
61471;SDS011;47337;54.068;12.114;2023-11-21T07:29:55;8.07;;;4.10;;
61471;SDS011;47337;54.068;12.114;2023-11-21T07:32:20;7.55;;;4.40;;
61471;SDS011;47337;54.068;12.114;2023-11-21T07:34:46;6.25;;;4.18;;
61471;SDS011;47337;54.068;12.114;2023-11-21T07:37:11;8.82;;;4.20;;
61471;SDS011;47337;54.068;12.114;2023-11-21T07:39:38;8.65;;;4.60;;
61471;SDS011;47337;54.068;12.114;2023-11-21T07:42:07;8.27;;;4.10;;
61471;SDS011;47337;54.068;12.114;2023-11-21T07:44:32;7.90;;;3.75;;
61471;SDS011;47337;54.068;12.114;2023-11-21T07:46:57;7.13;;;4.22;;
61471;SDS011;47337;54.068;12.114;2023-11-21T07:49:25;8.10;;;4.68;;
61471;SDS011;47337;54.068;12.114;2023-11-21T07:51:51;7.07;;;4.75;;
61471;SDS011;47337;54.068;12.114;2023-11-21T07:54:17;6.93;;;4.20;;
61471;SDS011;47337;54.068;12.114;2023-11-21T07:56:42;6.22;;;4.00;;
61471;SDS011;47337;54.068;12.114;2023-11-21T07:59:08;10.13;;;5.38;;
61471;SDS011;47337;54.068;12.114;2023-11-21T08:01:33;8.18;;;4.38;;
61471;SDS011;47337;54.068;12.114;2023-11-21T08:03:58;5.10;;;3.83;;
61471;SDS011;47337;54.068;12.114;2023-11-21T08:06:28;6.57;;;4.07;;
61471;SDS011;47337;54.068;12.114;2023-11-21T08:08:53;9.38;;;3.90;;
61471;SDS011;47337;54.068;12.114;2023-11-21T08:11:19;6.93;;;3.67;;
61471;SDS011;47337;54.068;12.114;2023-11-21T08:13:46;7.13;;;3.30;;
61471;SDS011;47337;54.068;12.114;2023-11-21T08:16:11;7.53;;;4.18;;
61471;SDS011;47337;54.068;12.114;2023-11-21T08:18:37;7.82;;;3.90;;
61471;SDS011;47337;54.068;12.114;2023-11-21T08:21:02;8.35;;;4.07;;
61471;SDS011;47337;54.068;12.114;2023-11-21T08:23:29;5.15;;;3.80;;
61471;SDS011;47337;54.068;12.114;2023-11-21T08:25:54;5.97;;;4.05;;
61471;SDS011;47337;54.068;12.114;2023-11-21T08:28:20;5.32;;;4.13;;
61471;SDS011;47337;54.068;12.114;2023-11-21T08:30:51;7.68;;;4.43;;
61471;SDS011;47337;54.068;12.114;2023-11-21T08:33:16;7.38;;;4.57;;
61471;SDS011;47337;54.068;12.114;2023-11-21T08:35:41;7.47;;;4.35;;
61471;SDS011;47337;54.068;12.114;2023-11-21T08:38:07;6.50;;;3.75;;
61471;SDS011;47337;54.068;12.114;2023-11-21T08:40:32;7.95;;;4.15;;
61471;SDS011;47337;54.068;12.114;2023-11-21T08:42:57;8.02;;;4.20;;
61471;SDS011;47337;54.068;12.114;2023-11-21T08:45:24;6.30;;;4.15;;
61471;SDS011;47337;54.068;12.114;2023-11-21T08:47:50;5.32;;;3.63;;
61471;SDS011;47337;54.068;12.114;2023-11-21T08:50:15;5.35;;;3.78;;
61471;SDS011;47337;54.068;12.114;2023-11-21T08:52:41;7.60;;;3.95;;
61471;SDS011;47337;54.068;12.114;2023-11-21T08:55:09;9.07;;;4.57;;
61471;SDS011;47337;54.068;12.114;2023-11-21T08:57:37;5.82;;;3.72;;
61471;SDS011;47337;54.068;12.114;2023-11-21T09:00:03;6.13;;;3.90;;
61471;SDS011;47337;54.068;12.114;2023-11-21T09:02:30;5.13;;;3.25;;
61471;SDS011;47337;54.068;12.114;2023-11-21T09:04:57;6.68;;;3.95;;
61471;SDS011;47337;54.068;12.114;2023-11-21T09:07:24;6.22;;;3.92;;
61471;SDS011;47337;54.068;12.114;2023-11-21T09:09:49;5.13;;;3.58;;
61471;SDS011;47337;54.068;12.114;2023-11-21T09:12:15;6.57;;;3.85;;
61471;SDS011;47337;54.068;12.114;2023-11-21T09:14:40;5.88;;;3.60;;
61471;SDS011;47337;54.068;12.114;2023-11-21T09:17:09;7.93;;;3.28;;
61471;SDS011;47337;54.068;12.114;2023-11-21T09:19:38;5.88;;;3.33;;
61471;SDS011;47337;54.068;12.114;2023-11-21T09:22:04;7.78;;;3.58;;
61471;SDS011;47337;54.068;12.114;2023-11-21T09:24:30;6.00;;;2.65;;
61471;SDS011;47337;54.068;12.114;2023-11-21T09:26:55;6.63;;;2.92;;
61471;SDS011;47337;54.068;12.114;2023-11-21T09:29:21;4.97;;;2.72;;
61471;SDS011;47337;54.068;12.114;2023-11-21T09:31:47;4.13;;;2.70;;
61471;SDS011;47337;54.068;12.114;2023-11-21T09:34:16;3.97;;;2.65;;
61471;SDS011;47337;54.068;12.114;2023-11-21T09:36:41;3.70;;;2.60;;
61471;SDS011;47337;54.068;12.114;2023-11-21T09:39:09;6.20;;;2.50;;
61471;SDS011;47337;54.068;12.114;2023-11-21T09:41:40;4.45;;;2.38;;
61471;SDS011;47337;54.068;12.114;2023-11-21T09:44:09;3.35;;;2.40;;
61471;SDS011;47337;54.068;12.114;2023-11-21T09:46:37;3.55;;;2.33;;
61471;SDS011;47337;54.068;12.114;2023-11-21T09:49:05;4.53;;;2.70;;
61471;SDS011;47337;54.068;12.114;2023-11-21T09:51:37;4.15;;;3.00;;
61471;SDS011;47337;54.068;12.114;2023-11-21T09:54:06;2.80;;;2.15;;
61471;SDS011;47337;54.068;12.114;2023-11-21T09:56:33;5.70;;;2.97;;
61471;SDS011;47337;54.068;12.114;2023-11-21T09:58:59;4.40;;;2.88;;
61471;SDS011;47337;54.068;12.114;2023-11-21T10:01:31;6.28;;;2.70;;
61471;SDS011;47337;54.068;12.114;2023-11-21T10:03:57;4.53;;;2.60;;
61471;SDS011;47337;54.068;12.114;2023-11-21T10:06:24;5.43;;;2.60;;
61471;SDS011;47337;54.068;12.114;2023-11-21T10:08:51;3.70;;;2.58;;
61471;SDS011;47337;54.068;12.114;2023-11-21T10:11:18;4.63;;;2.80;;
61471;SDS011;47337;54.068;12.114;2023-11-21T10:13:44;6.43;;;3.00;;
61471;SDS011;47337;54.068;12.114;2023-11-21T10:16:11;4.20;;;2.70;;
61471;SDS011;47337;54.068;12.114;2023-11-21T10:18:39;6.38;;;3.15;;
61471;SDS011;47337;54.068;12.114;2023-11-21T10:21:06;4.85;;;2.97;;
61471;SDS011;47337;54.068;12.114;2023-11-21T10:23:31;3.80;;;2.40;;
61471;SDS011;47337;54.068;12.114;2023-11-21T10:25:56;6.80;;;3.03;;
61471;SDS011;47337;54.068;12.114;2023-11-21T10:28:24;3.97;;;2.05;;
61471;SDS011;47337;54.068;12.114;2023-11-21T10:30:49;4.25;;;2.58;;
61471;SDS011;47337;54.068;12.114;2023-11-21T10:33:14;5.22;;;2.47;;
61471;SDS011;47337;54.068;12.114;2023-11-21T10:38:11;5.13;;;2.58;;
61471;SDS011;47337;54.068;12.114;2023-11-21T10:40:39;3.47;;;2.38;;
61471;SDS011;47337;54.068;12.114;2023-11-21T10:43:08;4.18;;;2.35;;
61471;SDS011;47337;54.068;12.114;2023-11-21T10:45:42;3.70;;;2.13;;
61471;SDS011;47337;54.068;12.114;2023-11-21T10:48:17;3.80;;;1.98;;
61471;SDS011;47337;54.068;12.114;2023-11-21T10:50:46;4.25;;;2.22;;
61471;SDS011;47337;54.068;12.114;2023-11-21T10:53:14;4.65;;;2.47;;
61471;SDS011;47337;54.068;12.114;2023-11-21T10:55:39;3.42;;;2.17;;
61471;SDS011;47337;54.068;12.114;2023-11-21T10:58:04;4.13;;;2.30;;
61471;SDS011;47337;54.068;12.114;2023-11-21T11:00:31;5.07;;;2.70;;
61471;SDS011;47337;54.068;12.114;2023-11-21T11:02:57;4.97;;;2.45;;
61471;SDS011;47337;54.068;12.114;2023-11-21T11:05:24;5.72;;;2.92;;
61471;SDS011;47337;54.068;12.114;2023-11-21T11:07:51;7.07;;;2.72;;
61471;SDS011;47337;54.068;12.114;2023-11-21T11:10:20;4.28;;;2.10;;
61471;SDS011;47337;54.068;12.114;2023-11-21T11:12:47;4.47;;;2.08;;
61471;SDS011;47337;54.068;12.114;2023-11-21T11:15:13;4.22;;;2.30;;
61471;SDS011;47337;54.068;12.114;2023-11-21T11:17:39;5.72;;;1.90;;
61471;SDS011;47337;54.068;12.114;2023-11-21T11:20:05;5.75;;;2.55;;
61471;SDS011;47337;54.068;12.114;2023-11-21T11:22:59;2.63;;;1.60;;
61471;SDS011;47337;54.068;12.114;2023-11-21T11:25:39;6.75;;;1.98;;
61471;SDS011;47337;54.068;12.114;2023-11-21T11:30:35;2.85;;;1.77;;
61471;SDS011;47337;54.068;12.114;2023-11-21T11:38:05;3.85;;;1.92;;
61471;SDS011;47337;54.068;12.114;2023-11-21T11:40:44;4.80;;;1.88;;
61471;SDS011;47337;54.068;12.114;2023-11-21T11:43:10;3.13;;;1.70;;
61471;SDS011;47337;54.068;12.114;2023-11-21T11:45:35;2.20;;;1.70;;
61471;SDS011;47337;54.068;12.114;2023-11-21T11:48:06;3.13;;;1.77;;
61471;SDS011;47337;54.068;12.114;2023-11-21T11:50:31;2.78;;;1.42;;
61471;SDS011;47337;54.068;12.114;2023-11-21T11:53:12;3.28;;;1.65;;
61471;SDS011;47337;54.068;12.114;2023-11-21T11:55:37;2.00;;;1.35;;
61471;SDS011;47337;54.068;12.114;2023-11-21T11:58:04;3.88;;;2.13;;
61471;SDS011;47337;54.068;12.114;2023-11-21T12:00:33;6.45;;;2.10;;
61471;SDS011;47337;54.068;12.114;2023-11-21T12:03:02;2.67;;;1.85;;
61471;SDS011;47337;54.068;12.114;2023-11-21T12:05:28;4.55;;;1.60;;
61471;SDS011;47337;54.068;12.114;2023-11-21T12:07:54;4.03;;;1.80;;
61471;SDS011;47337;54.068;12.114;2023-11-21T12:10:25;5.80;;;1.88;;
61471;SDS011;47337;54.068;12.114;2023-11-21T12:12:51;3.55;;;1.90;;
61471;SDS011;47337;54.068;12.114;2023-11-21T12:15:20;3.08;;;1.92;;
61471;SDS011;47337;54.068;12.114;2023-11-21T12:17:46;2.53;;;1.65;;
61471;SDS011;47337;54.068;12.114;2023-11-21T12:20:12;3.88;;;2.00;;
61471;SDS011;47337;54.068;12.114;2023-11-21T12:22:45;2.58;;;1.73;;
61471;SDS011;47337;54.068;12.114;2023-11-21T12:25:17;3.97;;;1.95;;
61471;SDS011;47337;54.068;12.114;2023-11-21T12:27:51;3.20;;;1.53;;
61471;SDS011;47337;54.068;12.114;2023-11-21T12:30:17;4.70;;;1.83;;
61471;SDS011;47337;54.068;12.114;2023-11-21T12:32:44;4.47;;;2.00;;
61471;SDS011;47337;54.068;12.114;2023-11-21T12:35:11;4.25;;;1.60;;
61471;SDS011;47337;54.068;12.114;2023-11-21T12:37:37;4.55;;;2.75;;
61471;SDS011;47337;54.068;12.114;2023-11-21T12:40:04;4.13;;;1.98;;
61471;SDS011;47337;54.068;12.114;2023-11-21T12:42:29;6.18;;;1.88;;
61471;SDS011;47337;54.068;12.114;2023-11-21T12:45:10;2.83;;;1.80;;
61471;SDS011;47337;54.068;12.114;2023-11-21T12:47:43;3.28;;;1.67;;
61471;SDS011;47337;54.068;12.114;2023-11-21T12:50:11;3.95;;;1.90;;
61471;SDS011;47337;54.068;12.114;2023-11-21T12:52:42;3.00;;;1.65;;
61471;SDS011;47337;54.068;12.114;2023-11-21T12:55:12;3.80;;;2.22;;
61471;SDS011;47337;54.068;12.114;2023-11-21T12:57:41;3.33;;;1.80;;
61471;SDS011;47337;54.068;12.114;2023-11-21T13:00:10;3.45;;;1.63;;
61471;SDS011;47337;54.068;12.114;2023-11-21T13:02:40;2.83;;;1.40;;
61471;SDS011;47337;54.068;12.114;2023-11-21T13:05:10;3.08;;;2.03;;
61471;SDS011;47337;54.068;12.114;2023-11-21T13:07:46;2.97;;;1.63;;
61471;SDS011;47337;54.068;12.114;2023-11-21T13:10:16;2.38;;;1.55;;
61471;SDS011;47337;54.068;12.114;2023-11-21T13:12:44;3.92;;;2.20;;
61471;SDS011;47337;54.068;12.114;2023-11-21T13:15:13;3.65;;;1.70;;
61471;SDS011;47337;54.068;12.114;2023-11-21T13:17:39;3.13;;;1.73;;
61471;SDS011;47337;54.068;12.114;2023-11-21T13:20:05;4.47;;;1.88;;
61471;SDS011;47337;54.068;12.114;2023-11-21T13:22:33;3.97;;;2.13;;
61471;SDS011;47337;54.068;12.114;2023-11-21T13:25:00;3.15;;;1.60;;
61471;SDS011;47337;54.068;12.114;2023-11-21T13:27:32;3.50;;;1.40;;
61471;SDS011;47337;54.068;12.114;2023-11-21T13:29:58;3.03;;;1.30;;
61471;SDS011;47337;54.068;12.114;2023-11-21T13:32:24;5.18;;;1.40;;
61471;SDS011;47337;54.068;12.114;2023-11-21T13:34:49;3.05;;;1.40;;
61471;SDS011;47337;54.068;12.114;2023-11-21T13:37:20;2.22;;;1.30;;
61471;SDS011;47337;54.068;12.114;2023-11-21T13:39:45;2.25;;;1.02;;
61471;SDS011;47337;54.068;12.114;2023-11-21T13:42:15;4.18;;;1.00;;
61471;SDS011;47337;54.068;12.114;2023-11-21T13:44:41;2.45;;;1.23;;
61471;SDS011;47337;54.068;12.114;2023-11-21T13:47:11;2.00;;;1.20;;
61471;SDS011;47337;54.068;12.114;2023-11-21T13:49:39;2.53;;;1.40;;
61471;SDS011;47337;54.068;12.114;2023-11-21T13:52:06;2.78;;;1.67;;
61471;SDS011;47337;54.068;12.114;2023-11-21T13:54:32;4.07;;;1.70;;
61471;SDS011;47337;54.068;12.114;2023-11-21T13:57:00;3.13;;;1.50;;
61471;SDS011;47337;54.068;12.114;2023-11-21T13:59:25;3.80;;;1.50;;
61471;SDS011;47337;54.068;12.114;2023-11-21T14:01:53;3.30;;;1.65;;
61471;SDS011;47337;54.068;12.114;2023-11-21T14:04:22;3.42;;;1.20;;
61471;SDS011;47337;54.068;12.114;2023-11-21T14:07:11;3.65;;;1.80;;
61471;SDS011;47337;54.068;12.114;2023-11-21T14:10:00;2.65;;;1.20;;
61471;SDS011;47337;54.068;12.114;2023-11-21T14:12:26;1.92;;;1.30;;
61471;SDS011;47337;54.068;12.114;2023-11-21T14:14:51;1.83;;;1.02;;
61471;SDS011;47337;54.068;12.114;2023-11-21T14:17:17;3.25;;;1.55;;
61471;SDS011;47337;54.068;12.114;2023-11-21T14:19:42;2.33;;;1.23;;
61471;SDS011;47337;54.068;12.114;2023-11-21T14:22:11;2.05;;;1.00;;
61471;SDS011;47337;54.068;12.114;2023-11-21T14:24:37;2.47;;;1.30;;
61471;SDS011;47337;54.068;12.114;2023-11-21T14:27:02;2.28;;;1.65;;
61471;SDS011;47337;54.068;12.114;2023-11-21T14:29:28;2.47;;;0.98;;
61471;SDS011;47337;54.068;12.114;2023-11-21T14:31:54;3.88;;;1.08;;
61471;SDS011;47337;54.068;12.114;2023-11-21T14:34:22;3.90;;;1.20;;
61471;SDS011;47337;54.068;12.114;2023-11-21T14:36:48;2.72;;;1.45;;
61471;SDS011;47337;54.068;12.114;2023-11-21T14:39:14;3.10;;;1.42;;
61471;SDS011;47337;54.068;12.114;2023-11-21T14:41:49;4.10;;;1.58;;